Vojsko, Slovenia

12:16 PM CEST on March 26, 2017 (GMT +0200)
Cesta IV. prekomorske | | Change Station

Elev 383 ft 45.89 °N, 13.91 °E | Updated 1 minute ago

Mostly Cloudy
Mostly Cloudy
58.5 °F
Feels Like 58.5 °F
N
3.7
Wind Variable Wind from South
Gusts 15.5 mph

Today
High -- | Low -- °F
--% Chance of Precip.
Yesterday
High -- | Low -- °F
Precip. -- in
Pressure 30.15 in
Visibility 6.2 miles
Clouds Few 3700 ft
Mostly Cloudy 5000 ft
Overcast 10000 ft
Dew Point 39 °F
Humidity 48%
Rainfall Not available.
Snow Depth Not available.
6:55 AM 7:25 PM
Waning Crescent, 4% visible
METAR LJLJ 261000Z 13011KT 9999 -RA FEW037 BKN050 OVC100 07/01 Q1021 NOSIG
Pressure 30.15 in
Visibility 6.2 miles
Clouds Few 3700 ft
Mostly Cloudy 5000 ft
Overcast 10000 ft
Dew Point 39 °F
Humidity 48%
Rainfall Not available.
Snow Depth Not available.
6:55 AM 7:25 PM
Waning Crescent, 4% visible
METAR LJLJ 261000Z 13011KT 9999 -RA FEW037 BKN050 OVC100 07/01 Q1021 NOSIG

Get Severe Weather Alerts

Thanks for signing up!

Be on the lookout for a verification email in your inbox.

You'll start receiving the daily forecast at 8 AM.

×

10-Day Weather Forecast

×

Almanac

Astronomy

Mar. 26, 2017 Rise Set
Actual Time
Civil Twilight
Nautical Twilight
Astronomical Twilight
Moon
Length of Visible Light
Length of Day
Tomorrow will be .
, % of the Moon is Illuminated

Today's Extremes

Country Highs Country Lows

Community

WunderPhotos

Upload Photos

1,962,540 photos uploaded!

WunderBlog® & News

Nearby

Air Quality

  Air Quality AQ Index Pollutant
Not available.

Snow Depth

Station Depth Elevation

Earthquake Activity

City Distance Mag. Time & Date
Minimum magnitude displayed is 2.5.

Earthquake Activity

City Distance Mag. Time & Date
Minimum magnitude displayed is 2.5.

Coastal Water Temperatures

Place Temperature

Stations

Nearby Weather Stations

Station Location Temp. Windchill Dew Point Humidity Wind Precip. Elev Updated Type